Time;durP1;ratioP1;P1;durP2;ratioP2;P2;SDS_P1;SDS_P2;PMS_P1;PMS_P2;Temp;Humidity;BMP_temperature;BMP_pressure;BME280_temperature;BME280_humidity;BME280_pressure;Samples;Min_cycle;Max_cycle;Signal;HPM_P1;HPM_P2
2021/12/03 00:00:41;;;;;;;48.87;24.32;;;;;;;1.71;100.00;98740.94;1770480;80;21045;-82
2021/12/03 00:03:09;;;;;;;47.53;24.37;;;;;;;1.55;100.00;98758.59;1764943;80;21074;-83
2021/12/03 00:05:35;;;;;;;52.35;25.32;;;;;;;1.55;100.00;98758.59;1750243;81;21133;-82
2021/12/03 00:08:05;;;;;;;53.75;26.62;;;;;;;1.48;100.00;98758.33;1750090;82;21170;-81
2021/12/03 00:10:31;;;;;;;55.63;26.52;;;;;;;1.39;100.00;98755.48;1757876;80;21070;-81
2021/12/03 00:12:59;;;;;;;52.20;23.92;;;;;;;1.35;100.00;98756.44;1781731;80;21055;-82
2021/12/03 00:15:26;;;;;;;45.15;23.52;;;;;;;1.31;100.00;98760.00;1781486;80;21094;-83
2021/12/03 00:17:53;;;;;;;48.68;25.35;;;;;;;1.23;100.00;98753.66;1781479;80;21061;-83
2021/12/03 00:20:21;;;;;;;54.77;25.57;;;;;;;1.22;100.00;98761.47;1781128;80;21081;-82
2021/12/03 00:22:50;;;;;;;50.85;27.05;;;;;;;1.14;100.00;98757.75;1782045;80;21082;-84
2021/12/03 00:25:16;;;;;;;54.30;26.12;;;;;;;1.09;100.00;98761.34;1781656;80;21424;-83
2021/12/03 00:27:43;;;;;;;49.77;23.42;;;;;;;1.06;100.00;98762.25;1782272;80;21074;-84
2021/12/03 00:30:12;;;;;;;47.58;24.85;;;;;;;1.03;100.00;98768.78;1783302;80;21064;-81
2021/12/03 00:32:39;;;;;;;45.80;24.18;;;;;;;1.01;100.00;98774.02;1764319;80;21038;-82
2021/12/03 00:35:08;;;;;;;47.27;24.27;;;;;;;1.02;100.00;98771.82;1754140;81;21074;-81
2021/12/03 00:37:37;;;;;;;45.05;24.50;;;;;;;0.98;100.00;98764.98;1753892;82;21095;-83
2021/12/03 00:40:09;;;;;;;44.85;23.73;;;;;;;0.97;100.00;98755.51;1753061;81;21094;-80
2021/12/03 00:42:38;;;;;;;43.83;21.68;;;;;;;1.02;100.00;98758.86;1751697;82;22175;-82
2021/12/03 00:45:06;;;;;;;48.05;25.45;;;;;;;1.05;100.00;98753.59;1750401;82;21062;-82
2021/12/03 00:47:33;;;;;;;46.13;23.73;;;;;;;1.10;100.00;98757.84;1750636;82;21253;-85
2021/12/03 00:50:00;;;;;;;41.73;22.00;;;;;;;1.10;100.00;98765.63;1751165;81;21025;-85
2021/12/03 00:52:27;;;;;;;52.53;26.10;;;;;;;1.13;100.00;98752.58;1752636;81;21144;-82
2021/12/03 00:54:53;;;;;;;45.55;23.22;;;;;;;1.13;100.00;98754.76;1752593;81;21835;-83
2021/12/03 00:57:20;;;;;;;46.68;24.10;;;;;;;1.16;100.00;98759.02;1752527;81;21500;-82
2021/12/03 00:59:46;;;;;;;44.03;23.07;;;;;;;1.17;100.00;98746.45;1752585;81;21073;-84
2021/12/03 01:02:13;;;;;;;44.98;23.90;;;;;;;1.21;100.00;98742.91;1766289;81;21028;-82
2021/12/03 01:04:40;;;;;;;41.68;23.02;;;;;;;1.25;100.00;98748.45;1767802;81;21020;-85
2021/12/03 01:07:08;;;;;;;42.75;24.10;;;;;;;1.30;100.00;98745.31;1767746;81;21038;-82
2021/12/03 01:09:36;;;;;;;46.30;25.85;;;;;;;1.32;100.00;98740.95;1756928;81;21535;-82
2021/12/03 01:12:04;;;;;;;46.58;24.23;;;;;;;1.38;100.00;98749.91;1767332;81;21040;-83
2021/12/03 01:14:32;;;;;;;49.23;23.15;;;;;;;1.38;100.00;98749.91;1767481;81;21001;-83
2021/12/03 01:16:59;;;;;;;59.85;27.02;;;;;;;1.39;100.00;98752.89;1767434;81;21036;-82
2021/12/03 01:19:25;;;;;;;44.55;22.90;;;;;;;1.44;100.00;98757.53;1767293;81;21856;-81
2021/12/03 01:21:52;;;;;;;46.55;24.98;;;;;;;1.46;100.00;98752.31;1767331;81;21061;-82
2021/12/03 01:24:18;;;;;;;51.45;24.57;;;;;;;1.49;100.00;98744.91;1767397;81;21096;-79
2021/12/03 01:26:45;;;;;;;43.20;23.42;;;;;;;1.52;100.00;98744.41;1767420;81;21017;-80
2021/12/03 01:29:12;;;;;;;49.50;24.82;;;;;;;1.52;100.00;98745.70;1767372;81;21052;-81
2021/12/03 01:31:39;;;;;;;45.15;22.02;;;;;;;1.54;100.00;98750.84;1759106;81;22340;-81
2021/12/03 01:34:05;;;;;;;46.25;23.55;;;;;;;1.54;100.00;98754.73;1767992;79;21304;-81
2021/12/03 01:36:36;;;;;;;44.90;23.70;;;;;;;1.56;100.00;98744.72;1753018;81;21086;-82
2021/12/03 01:39:03;;;;;;;37.78;20.88;;;;;;;1.55;100.00;98742.19;1762681;81;21038;-83
2021/12/03 01:41:32;;;;;;;46.80;23.05;;;;;;;1.52;100.00;98746.13;1762663;81;21096;-83
2021/12/03 01:44:02;;;;;;;48.58;24.27;;;;;;;1.51;100.00;98743.14;1744811;81;21683;-82
2021/12/03 01:46:30;;;;;;;44.90;23.47;;;;;;;1.48;100.00;98744.52;1770698;81;21610;-82
2021/12/03 01:48:57;;;;;;;52.53;24.45;;;;;;;1.45;100.00;98742.39;1739064;81;21070;-82
2021/12/03 01:51:23;;;;;;;42.53;22.22;;;;;;;1.44;100.00;98736.77;1767682;79;21645;-83
2021/12/03 01:53:50;;;;;;;38.08;21.17;;;;;;;1.43;100.00;98735.08;1772939;80;21173;-82
2021/12/03 01:56:18;;;;;;;42.43;22.48;;;;;;;1.45;100.00;98728.13;1772725;80;21135;-83
2021/12/03 01:58:47;;;;;;;37.63;21.57;;;;;;;1.44;100.00;98730.29;1773024;80;21130;-84
2021/12/03 02:01:16;;;;;;;41.92;24.02;;;;;;;1.44;100.00;98735.48;1772933;80;21909;-84
2021/12/03 02:03:48;;;;;;;44.70;22.80;;;;;;;1.45;100.00;98729.42;1772957;80;21540;-84
2021/12/03 02:06:15;;;;;;;44.03;19.67;;;;;;;1.45;100.00;98729.42;1773146;80;21063;-78
2021/12/03 02:08:41;;;;;;;44.58;22.67;;;;;;;1.47;100.00;98728.06;1772563;80;21129;-79
2021/12/03 02:11:10;;;;;;;36.55;17.87;;;;;;;1.49;100.00;98724.16;1772753;80;21063;-80
2021/12/03 02:13:37;;;;;;;37.48;21.42;;;;;;;1.49;100.00;98724.16;1772973;80;21064;-78
2021/12/03 02:16:05;;;;;;;37.25;21.23;;;;;;;1.51;100.00;98730.16;1772815;80;21483;-79
2021/12/03 02:18:31;;;;;;;39.75;20.65;;;;;;;1.46;100.00;98728.52;1773042;80;21103;-78
2021/12/03 02:21:00;;;;;;;38.65;21.87;;;;;;;1.45;100.00;98728.13;1772859;80;21141;-79
2021/12/03 02:23:28;;;;;;;40.43;20.97;;;;;;;1.51;100.00;98727.56;1773023;80;21091;-81
2021/12/03 02:25:56;;;;;;;41.92;22.45;;;;;;;1.51;100.00;98726.27;1773040;80;21091;-78
2021/12/03 02:28:26;;;;;;;45.85;23.92;;;;;;;1.51;100.00;98718.03;1773031;80;21107;-83
2021/12/03 02:30:54;;;;;;;35.80;20.67;;;;;;;1.50;100.00;98712.45;1772550;80;21126;-81
2021/12/03 02:33:20;;;;;;;43.02;23.00;;;;;;;1.54;100.00;98700.24;1773055;80;21558;-85
2021/12/03 02:35:47;;;;;;;45.30;22.60;;;;;;;1.54;100.00;98700.24;1773233;80;22166;-83
2021/12/03 02:38:19;;;;;;;48.17;25.97;;;;;;;1.57;100.00;98699.73;1772925;80;21083;-84
2021/12/03 02:40:45;;;;;;;45.20;22.75;;;;;;;1.58;100.00;98695.40;1773158;80;21103;-83
2021/12/03 02:43:12;;;;;;;42.17;21.45;;;;;;;1.57;100.00;98687.22;1773206;80;21538;-84
2021/12/03 02:45:39;;;;;;;48.00;26.17;;;;;;;1.52;100.00;98695.53;1772983;80;21120;-82
2021/12/03 02:48:06;;;;;;;45.45;24.92;;;;;;;1.52;100.00;98695.53;1773112;80;21032;-83
2021/12/03 02:50:34;;;;;;;39.58;21.30;;;;;;;1.53;100.00;98702.44;1772956;80;21590;-85
2021/12/03 02:53:01;;;;;;;44.67;25.27;;;;;;;1.54;100.00;98696.34;1770470;80;21587;-83
2021/12/03 02:55:28;;;;;;;45.83;24.05;;;;;;;1.54;100.00;98696.34;1742375;82;21071;-82
2021/12/03 02:57:54;;;;;;;50.28;25.95;;;;;;;1.50;100.00;98696.04;1742622;82;21135;-84
2021/12/03 03:00:24;;;;;;;43.10;24.43;;;;;;;1.39;100.00;98698.42;1742358;82;21115;-80
2021/12/03 03:02:51;;;;;;;38.15;21.37;;;;;;;1.39;100.00;98698.42;1742591;82;21024;-81
2021/12/03 03:05:18;;;;;;;45.65;25.10;;;;;;;1.37;100.00;98700.19;1742534;82;21099;-80
2021/12/03 03:07:45;;;;;;;46.33;25.52;;;;;;;1.37;100.00;98685.92;1742283;82;21071;-81
2021/12/03 03:10:15;;;;;;;43.38;22.90;;;;;;;1.39;100.00;98678.12;1742192;82;22156;-79
2021/12/03 03:12:43;;;;;;;47.80;23.67;;;;;;;1.41;100.00;98675.89;1742222;82;21581;-81
2021/12/03 03:15:10;;;;;;;41.95;22.70;;;;;;;1.42;100.00;98674.98;1743070;82;21059;-80
2021/12/03 03:17:37;;;;;;;42.73;23.35;;;;;;;1.46;100.00;98665.41;1743202;82;21083;-80
2021/12/03 03:20:07;;;;;;;43.52;22.87;;;;;;;1.46;100.00;98665.41;1743522;81;21567;-79
2021/12/03 03:22:35;;;;;;;44.25;23.75;;;;;;;1.50;100.00;98663.61;1743912;82;21079;-81
2021/12/03 03:46:20;;;;;;;49.80;25.12;;;;;;;1.33;100.00;98647.97;1754460;79;20989;-82
2021/12/03 03:48:47;;;;;;;41.00;24.05;;;;;;;1.33;100.00;98633.70;1755986;80;21190;-78
2021/12/03 03:51:13;;;;;;;47.80;24.37;;;;;;;1.37;100.00;98630.16;1765934;80;21060;-80
2021/12/03 03:53:41;;;;;;;54.30;27.65;;;;;;;1.37;100.00;98618.48;1771035;81;21107;-81
2021/12/03 03:56:08;;;;;;;51.92;27.15;;;;;;;1.36;100.00;98618.54;1769434;81;21143;-78
2021/12/03 03:58:37;;;;;;;57.53;25.95;;;;;;;1.35;100.00;98609.03;1747516;82;21022;-78
2021/12/03 04:01:05;;;;;;;48.28;24.70;;;;;;;1.32;100.00;98609.97;1759200;81;21056;-80
2021/12/03 04:03:33;;;;;;;46.35;23.50;;;;;;;1.30;100.00;98607.84;1759495;81;21070;-81
2021/12/03 04:06:00;;;;;;;38.50;20.80;;;;;;;1.29;100.00;98609.17;1759620;81;21002;-80
2021/12/03 04:08:29;;;;;;;42.13;22.30;;;;;;;1.31;100.00;98622.54;1759653;81;21136;-82
2021/12/03 04:10:58;;;;;;;39.73;22.20;;;;;;;1.31;100.00;98619.95;1759102;81;21107;-82
2021/12/03 04:13:26;;;;;;;51.65;25.50;;;;;;;1.23;100.00;98627.04;1758702;81;21599;-81
2021/12/03 04:15:53;;;;;;;47.00;24.12;;;;;;;1.16;100.00;98618.55;1759267;81;21123;-82
2021/12/03 04:18:20;;;;;;;48.35;27.67;;;;;;;1.16;100.00;98618.55;1759454;81;21081;-81
2021/12/03 04:20:47;;;;;;;50.60;27.98;;;;;;;1.13;100.00;98617.75;1759476;81;21120;-83
2021/12/03 04:23:19;;;;;;;46.35;25.17;;;;;;;1.05;100.00;98609.70;1760640;81;21134;-83
2021/12/03 04:25:44;;;;;;;54.10;25.90;;;;;;;1.05;100.00;98609.70;1760636;81;21104;-83
2021/12/03 04:28:11;;;;;;;50.35;26.57;;;;;;;1.04;100.00;98606.72;1761249;81;21060;-80
2021/12/03 04:30:38;;;;;;;43.83;24.02;;;;;;;1.04;100.00;98621.43;1761052;81;21649;-80
2021/12/03 04:33:04;;;;;;;44.73;24.27;;;;;;;1.00;100.00;98630.16;1763266;80;21095;-68
2021/12/03 04:35:31;;;;;;;42.60;22.75;;;;;;;1.00;100.00;98631.00;1745560;81;21512;-67
2021/12/03 04:37:59;;;;;;;42.95;22.40;;;;;;;0.98;100.00;98628.88;1731322;81;21068;-68
2021/12/03 04:40:26;;;;;;;48.65;24.35;;;;;;;0.98;100.00;98619.81;1748473;81;21154;-66
2021/12/03 04:47:20;;;;;;;45.17;24.10;;;;;;;0.95;100.00;98612.11;1750857;81;21946;-67
2021/12/03 04:49:47;;;;;;;44.27;25.08;;;;;;;0.96;100.00;98595.66;1754390;79;21100;-66
2021/12/03 04:52:14;;;;;;;45.35;24.57;;;;;;;0.93;100.00;98593.15;1760545;80;21067;-68
2021/12/03 04:54:42;;;;;;;42.90;21.37;;;;;;;0.89;100.00;98581.14;1783824;80;21031;-67
2021/12/03 04:57:09;;;;;;;44.75;22.42;;;;;;;0.93;100.00;98590.55;1730490;81;21616;-67
2021/12/03 04:59:36;;;;;;;44.40;22.25;;;;;;;0.91;100.00;98601.40;1725717;83;21128;-67
2021/12/03 05:02:03;;;;;;;40.15;23.05;;;;;;;0.91;100.00;98603.14;1729904;82;21167;-67
2021/12/03 05:04:36;;;;;;;47.65;25.50;;;;;;;0.93;100.00;98600.08;1737484;81;21064;-66
2021/12/03 05:07:16;;;;;;;46.88;24.18;;;;;;;0.91;100.00;98605.28;1783803;78;21027;-67
2021/12/03 05:09:33;;;;;;;44.90;23.90;;;;;;;0.88;100.00;98609.70;1758458;81;22135;-68
2021/12/03 05:12:00;;;;;;;47.58;22.30;;;;;;;0.87;100.00;98616.60;1781538;78;21134;-67
2021/12/03 05:14:28;;;;;;;47.75;24.85;;;;;;;0.87;100.00;98601.05;1767710;80;21550;-67
2021/12/03 05:16:55;;;;;;;46.73;24.15;;;;;;;0.89;100.00;98604.47;1762990;80;21056;-67
2021/12/03 05:19:21;;;;;;;43.02;24.25;;;;;;;0.89;100.00;98600.58;1731555;81;21080;-66
2021/12/03 05:21:49;;;;;;;45.33;23.60;;;;;;;0.87;100.00;98594.57;1760137;81;21569;-69
2021/12/03 05:24:16;;;;;;;44.53;24.02;;;;;;;0.86;100.00;98593.33;1752328;81;21111;-68
2021/12/03 05:26:43;;;;;;;38.42;19.48;;;;;;;0.87;100.00;98580.31;1759863;81;21579;-69
2021/12/03 05:29:11;;;;;;;48.08;24.63;;;;;;;0.87;100.00;98582.91;1731260;82;21037;-68
2021/12/03 05:31:38;;;;;;;40.92;21.25;;;;;;;0.89;100.00;98578.55;1771304;80;21370;-67
2021/12/03 05:34:09;;;;;;;41.35;22.07;;;;;;;0.93;100.00;98562.49;1772075;80;21087;-67
2021/12/03 05:36:35;;;;;;;42.15;22.13;;;;;;;0.95;100.00;98539.98;1762624;80;21143;-67
2021/12/03 05:39:01;;;;;;;60.17;26.33;;;;;;;0.99;100.00;98533.39;1741678;82;21063;-68
2021/12/03 05:41:29;;;;;;;54.53;27.50;;;;;;;0.99;100.00;98526.91;1741516;81;21139;-70
2021/12/03 05:43:57;;;;;;;43.48;22.87;;;;;;;1.00;100.00;98534.23;1765512;80;21123;-67
2021/12/03 05:46:25;;;;;;;35.80;19.32;;;;;;;0.98;100.00;98526.48;1772024;80;21083;-69
2021/12/03 05:48:51;;;;;;;45.03;24.80;;;;;;;1.01;100.00;98530.33;1772022;80;21153;-69
2021/12/03 05:51:18;;;;;;;43.40;22.82;;;;;;;1.05;100.00;98535.82;1771431;80;21139;-68
2021/12/03 05:56:23;;;;;;;43.30;23.23;;;;;;;1.13;100.00;98539.97;1840559;77;22785;-67
2021/12/03 05:58:49;;;;;;;38.35;21.57;;;;;;;1.12;100.00;98547.35;1786517;80;21071;-68
2021/12/03 06:01:18;;;;;;;45.25;24.67;;;;;;;1.18;100.00;98555.84;1830995;77;21142;-68
2021/12/03 06:03:46;;;;;;;56.40;23.32;;;;;;;1.21;100.00;98556.20;1855740;77;20910;-69
2021/12/03 06:06:14;;;;;;;40.60;22.30;;;;;;;1.21;100.00;98556.20;1828395;77;21293;-69
2021/12/03 06:08:41;;;;;;;40.30;23.42;;;;;;;1.29;100.00;98554.29;1803543;79;21150;-68
2021/12/03 06:11:08;;;;;;;45.78;24.10;;;;;;;1.34;100.00;98547.23;1804349;77;21020;-70
2021/12/03 06:13:39;;;;;;;47.83;23.90;;;;;;;1.37;100.00;98543.26;1813102;77;21489;-69
2021/12/03 06:16:08;;;;;;;44.35;23.50;;;;;;;1.40;100.00;98550.11;1813965;77;20996;-67
2021/12/03 06:18:35;;;;;;;44.80;22.55;;;;;;;1.41;100.00;98561.75;1801062;78;21037;-69
2021/12/03 06:21:04;;;;;;;39.58;22.58;;;;;;;1.40;100.00;98566.97;1807163;77;21095;-69
2021/12/03 06:23:31;;;;;;;40.12;21.52;;;;;;;1.45;100.00;98576.36;1795320;77;21044;-67
2021/12/03 06:26:01;;;;;;;39.70;20.15;;;;;;;1.58;100.00;98618.85;1789461;77;21137;-68
2021/12/03 06:28:28;;;;;;;52.83;28.47;;;;;;;1.65;100.00;98629.48;1803968;77;21005;-69
2021/12/03 06:30:56;;;;;;;40.33;21.42;;;;;;;1.65;100.00;98629.48;1805315;77;21560;-70
2021/12/03 06:33:22;;;;;;;40.00;22.10;;;;;;;1.73;100.00;98645.73;1800757;77;21061;-68
2021/12/03 06:35:49;;;;;;;38.45;20.75;;;;;;;1.79;100.00;98652.05;1801200;77;21037;-68
2021/12/03 06:38:16;;;;;;;39.13;21.37;;;;;;;1.83;100.00;98667.11;1807955;78;21165;-67
2021/12/03 06:40:43;;;;;;;40.92;23.83;;;;;;;1.85;100.00;98658.39;1803198;78;21128;-68
2021/12/03 06:43:10;;;;;;;39.73;20.75;;;;;;;1.91;100.00;98666.91;1804568;78;21096;-69
2021/12/03 06:45:37;;;;;;;43.80;23.70;;;;;;;1.93;100.00;98663.83;1808649;78;21667;-69
2021/12/03 06:48:05;;;;;;;43.23;24.35;;;;;;;1.94;100.00;98653.87;1804387;78;21106;-68
2021/12/03 06:50:32;;;;;;;46.40;23.92;;;;;;;1.95;100.00;98655.56;1802171;78;21796;-69
2021/12/03 06:53:02;;;;;;;44.13;23.70;;;;;;;1.94;100.00;98653.87;1787636;78;21026;-69
2021/12/03 06:55:28;;;;;;;37.88;20.50;;;;;;;1.93;100.00;98657.34;1786880;79;21139;-69
2021/12/03 06:57:54;;;;;;;44.85;23.18;;;;;;;1.96;100.00;98645.59;1780840;79;21073;-70
2021/12/03 07:00:22;;;;;;;46.28;23.50;;;;;;;1.99;100.00;98635.13;1796614;79;21081;-69
2021/12/03 07:02:49;;;;;;;46.83;23.70;;;;;;;2.05;100.00;98637.57;1795166;79;21066;-69
2021/12/03 07:05:16;;;;;;;87.02;30.88;;;;;;;2.08;100.00;98642.67;1782903;79;20997;-71
2021/12/03 07:07:45;;;;;;;46.80;24.07;;;;;;;2.10;100.00;98648.22;1789132;79;21029;-70
2021/12/03 07:10:12;;;;;;;40.33;22.82;;;;;;;2.12;100.00;98637.80;1780989;79;21076;-70
2021/12/03 07:12:39;;;;;;;57.93;25.10;;;;;;;2.14;100.00;98641.22;1784445;79;21108;-70
2021/12/03 07:15:06;;;;;;;43.75;19.80;;;;;;;2.22;100.00;98643.14;1782144;79;22190;-70
2021/12/03 07:17:33;;;;;;;98.22;39.90;;;;;;;2.26;100.00;98656.47;1776038;79;21109;-71
2021/12/03 07:20:01;;;;;;;135.60;53.05;;;;;;;2.34;100.00;98661.89;1778502;79;21054;-71
2021/12/03 07:22:28;;;;;;;69.92;31.70;;;;;;;2.40;100.00;98650.05;1762503;81;21074;-72
2021/12/03 07:24:54;;;;;;;65.80;33.83;;;;;;;2.40;100.00;98642.25;1762204;81;21659;-71
2021/12/03 07:27:21;;;;;;;74.05;32.67;;;;;;;2.44;100.00;98630.86;1768117;79;21851;-70
2021/12/03 07:29:48;;;;;;;61.53;30.52;;;;;;;2.47;100.00;98632.09;1786436;79;21021;-74
2021/12/03 07:32:21;;;;;;;61.48;26.87;;;;;;;2.54;100.00;98629.72;1775690;79;21038;-74
2021/12/03 07:34:48;;;;;;;56.73;27.48;;;;;;;2.59;100.00;98629.13;1778783;79;21045;-71
2021/12/03 07:37:14;;;;;;;54.58;28.25;;;;;;;2.65;100.00;98627.67;1778922;79;21110;-72
2021/12/03 07:39:41;;;;;;;47.80;25.80;;;;;;;2.81;100.00;98622.03;1778330;79;21113;-71
2021/12/03 07:42:07;;;;;;;42.80;23.57;;;;;;;2.94;100.00;98615.11;1777622;79;21063;-71
2021/12/03 07:44:34;;;;;;;47.73;26.65;;;;;;;3.02;100.00;98614.87;1774720;79;21553;-73
2021/12/03 07:47:01;;;;;;;48.40;24.85;;;;;;;3.08;100.00;98623.80;1777852;78;21105;-71
2021/12/03 07:49:28;;;;;;;51.65;28.20;;;;;;;3.10;100.00;98624.57;1776781;79;21054;-69
2021/12/03 07:51:54;;;;;;;43.50;23.70;;;;;;;3.11;100.00;98631.49;1788020;79;21595;-69
2021/12/03 07:54:22;;;;;;;42.35;22.17;;;;;;;3.08;100.00;98638.10;1806246;79;21065;-71
2021/12/03 07:56:49;;;;;;;48.58;24.12;;;;;;;3.05;100.00;98645.98;1796411;79;20995;-71
2021/12/03 07:59:16;;;;;;;43.02;23.73;;;;;;;3.06;100.00;98653.33;1799383;79;21104;-70
2021/12/03 08:01:45;;;;;;;53.28;28.42;;;;;;;3.06;100.00;98652.02;1788311;79;21571;-71
2021/12/03 08:04:11;;;;;;;54.70;29.90;;;;;;;3.02;100.00;98662.98;1761596;81;21117;-71
2021/12/03 08:06:40;;;;;;;53.73;27.73;;;;;;;3.03;100.00;98677.68;1756176;80;21089;-71
2021/12/03 08:09:08;;;;;;;55.03;28.92;;;;;;;3.00;100.00;98680.38;1736374;82;21042;-71
2021/12/03 08:11:34;;;;;;;55.67;28.55;;;;;;;3.00;100.00;98676.48;1726500;82;21060;-72
2021/12/03 08:14:02;;;;;;;52.25;27.90;;;;;;;2.99;100.00;98670.89;1709891;82;21080;-70
2021/12/03 08:16:29;;;;;;;55.95;29.00;;;;;;;3.02;100.00;98679.89;1736687;82;21214;-71
2021/12/03 08:18:55;;;;;;;56.18;28.87;;;;;;;3.09;100.00;98671.00;1762572;81;21564;-70
2021/12/03 08:21:22;;;;;;;62.20;32.17;;;;;;;3.17;100.00;98668.16;1759491;80;21034;-71
2021/12/03 08:23:49;;;;;;;56.83;29.18;;;;;;;3.31;100.00;98666.44;1741311;81;21086;-71
2021/12/03 08:26:16;;;;;;;52.38;29.05;;;;;;;3.39;100.00;98661.86;1752399;81;21083;-70
2021/12/03 08:28:43;;;;;;;53.10;27.98;;;;;;;3.45;100.00;98661.67;1756452;81;21152;-71
2021/12/03 08:31:14;;;;;;;52.27;27.10;;;;;;;3.55;100.00;98664.83;1754022;81;21073;-71
2021/12/03 08:33:38;;;;;;;56.77;30.70;;;;;;;3.60;100.00;98662.08;1749586;80;21495;-70
2021/12/03 08:36:04;;;;;;;59.63;29.87;;;;;;;3.63;100.00;98661.97;1727918;81;21002;-70
2021/12/03 08:38:31;;;;;;;53.50;29.65;;;;;;;3.65;100.00;98644.55;1721809;82;21105;-70
2021/12/03 08:40:57;;;;;;;59.88;30.88;;;;;;;3.69;100.00;98640.95;1728068;82;22189;-72
2021/12/03 08:43:24;;;;;;;56.00;29.77;;;;;;;3.68;100.00;98634.91;1721867;82;21535;-71
2021/12/03 08:45:54;;;;;;;64.12;33.42;;;;;;;3.70;100.00;98630.93;1721691;82;21134;-70
2021/12/03 08:48:19;;;;;;;66.12;33.40;;;;;;;3.73;100.00;98616.06;1724246;82;21609;-70
2021/12/03 08:51:06;;;;;;;54.58;29.67;;;;;;;3.77;100.00;98604.66;1716385;83;21149;-71
2021/12/03 08:55:46;;;;;;;52.90;28.45;;;;;;;3.88;100.00;98578.22;1730877;82;21042;-72
2021/12/03 08:58:16;;;;;;;56.63;29.48;;;;;;;3.96;100.00;98593.15;1781994;80;21021;-71
2021/12/03 09:00:42;;;;;;;53.73;29.47;;;;;;;3.99;100.00;98600.00;1781901;79;21041;-71
2021/12/03 09:03:08;;;;;;;55.15;29.75;;;;;;;4.07;100.00;98604.51;1765948;80;21053;-72
2021/12/03 09:05:37;;;;;;;59.83;31.70;;;;;;;4.10;100.00;98602.24;1761386;80;21545;-72
2021/12/03 09:08:04;;;;;;;61.68;31.57;;;;;;;4.14;100.00;98618.14;1767608;79;21631;-70
2021/12/03 09:10:33;;;;;;;54.38;28.10;;;;;;;4.11;100.00;98633.44;1762176;80;21029;-71
2021/12/03 09:12:59;;;;;;;54.75;28.42;;;;;;;4.01;100.00;98647.69;1753495;80;21069;-71
2021/12/03 09:15:31;;;;;;;44.80;25.70;;;;;;;3.90;100.00;98648.05;1751695;81;21076;-72
2021/12/03 09:22:50;;;;;;;50.45;24.15;;;;;;;3.80;100.00;98634.95;1764040;79;21073;-71
2021/12/03 09:25:21;;;;;;;43.25;24.57;;;;;;;3.83;100.00;98637.44;1778468;80;21061;-72
2021/12/03 09:27:45;;;;;;;45.03;23.70;;;;;;;3.86;100.00;98628.20;1780640;79;21031;-71
2021/12/03 09:30:14;;;;;;;47.27;25.88;;;;;;;3.88;100.00;98629.01;1767320;80;22120;-71
2021/12/03 09:32:45;;;;;;;45.52;26.57;;;;;;;3.93;100.00;98644.48;1773626;80;21100;-71
2021/12/03 09:35:10;;;;;;;45.58;24.72;;;;;;;3.97;100.00;98653.91;1777499;80;21045;-72
2021/12/03 09:37:37;;;;;;;51.80;27.73;;;;;;;3.97;100.00;98654.75;1781773;79;21057;-72
2021/12/03 09:40:08;;;;;;;53.30;26.27;;;;;;;4.01;100.00;98649.45;1769979;80;21320;-71
2021/12/03 09:42:37;;;;;;;44.35;25.20;;;;;;;4.02;100.00;98645.93;1781069;79;21134;-71
2021/12/03 09:45:06;;;;;;;44.18;25.80;;;;;;;3.98;100.00;98640.84;1769482;80;21030;-71
2021/12/03 09:47:33;;;;;;;42.67;25.60;;;;;;;3.98;100.00;98646.05;1781906;80;21034;-71
2021/12/03 09:50:03;;;;;;;46.73;26.17;;;;;;;3.95;100.00;98639.62;1782805;80;21038;-71
2021/12/03 09:55:02;;;;;;;50.80;28.10;;;;;;;3.96;100.00;98666.08;1782648;80;21198;-71
2021/12/03 09:57:37;;;;;;;54.65;30.20;;;;;;;3.94;100.00;98666.58;1786343;80;21031;-71
2021/12/03 10:03:03;;;;;;;57.45;27.82;;;;;;;3.86;100.00;98676.39;1787888;78;21070;-71
2021/12/03 10:13:07;;;;;;;52.85;28.00;;;;;;;3.63;100.00;98688.01;1736120;80;21100;-72
2021/12/03 10:15:33;;;;;;;54.48;23.77;;;;;;;3.53;100.00;98692.20;1786511;80;21069;-71
2021/12/03 10:20:36;;;;;;;44.58;23.90;;;;;;;3.33;100.00;98672.45;1787871;80;21137;-71
2021/12/03 10:34:04;;;;;;;45.70;24.32;;;;;;;2.94;100.00;98666.25;1803719;78;21629;-73
2021/12/03 10:42:19;;;;;;;43.05;23.98;;;;;;;2.84;100.00;98679.97;1811618;78;21679;-70
2021/12/03 10:47:57;;;;;;;39.85;22.10;;;;;;;2.80;100.00;98690.50;1807858;78;21285;-71
2021/12/03 10:50:27;;;;;;;35.43;20.68;;;;;;;2.76;100.00;98701.88;1796422;78;21064;-71
2021/12/03 10:58:46;;;;;;;29.57;16.82;;;;;;;2.58;100.00;98717.11;1795850;78;26591;-72
2021/12/03 11:37:14;;;;;;;8.23;5.65;;;;;;;2.08;100.00;98766.02;1796940;78;21096;-73
2021/12/03 11:39:04;;;;;;;18.07;7.63;;;;;;;2.05;100.00;98771.30;1781706;78;21139;-73
2021/12/03 11:52:52;;;;;;;7.78;3.95;;;;;;;1.85;100.00;98814.15;1813300;78;21092;-78
2021/12/03 13:12:18;;;;;;;4.47;2.80;;;;;;;1.02;100.00;98945.52;1777483;80;21084;-70
2021/12/03 14:00:23;;;;;;;7.67;4.10;;;;;;;0.50;100.00;99060.34;1790031;79;21183;-71
2021/12/03 14:08:43;;;;;;;6.75;3.87;;;;;;;0.50;100.00;99076.34;1770424;79;21066;-71
2021/12/03 14:56:17;;;;;;;7.40;4.47;;;;;;;0.48;100.00;99143.70;1781984;79;21045;-70
2021/12/03 14:58:54;;;;;;;8.45;4.67;;;;;;;0.51;100.00;99147.56;1777267;79;21588;-71
2021/12/03 15:01:27;;;;;;;8.25;5.17;;;;;;;0.51;100.00;99150.16;1769494;79;21072;-69
2021/12/03 15:09:00;;;;;;;10.05;5.78;;;;;;;0.50;100.00;99172.19;1733866;81;21071;-80
2021/12/03 15:27:42;;;;;;;12.60;7.15;;;;;;;0.42;100.00;99196.89;1715768;83;21077;-78
2021/12/03 15:32:47;;;;;;;11.03;7.72;;;;;;;0.41;100.00;99205.52;1726016;82;21531;-84
2021/12/03 15:51:58;;;;;;;11.05;7.20;;;;;;;0.42;100.00;99215.02;1728227;82;21073;-83
2021/12/03 16:04:29;;;;;;;13.28;8.35;;;;;;;0.44;100.00;99244.36;1694403;84;21129;-83
2021/12/03 16:13:19;;;;;;;14.38;9.08;;;;;;;0.44;100.00;99260.31;1699785;83;21031;-82
2021/12/03 16:48:09;;;;;;;17.55;10.40;;;;;;;0.39;100.00;99288.86;1770560;80;21563;-68
2021/12/03 16:52:32;;;;;;;18.52;11.55;;;;;;;0.37;100.00;99307.47;1748532;80;22037;-69
2021/12/03 16:55:01;;;;;;;19.40;10.35;;;;;;;0.35;100.00;99305.32;1752567;80;21908;-71
2021/12/03 16:57:30;;;;;;;20.02;12.47;;;;;;;0.31;100.00;99308.80;1753372;80;21032;-69
2021/12/03 16:59:59;;;;;;;17.48;10.48;;;;;;;0.30;100.00;99312.25;1772158;80;21596;-70
2021/12/03 17:02:39;;;;;;;17.45;11.30;;;;;;;0.28;100.00;99315.31;1774008;80;21100;-70
2021/12/03 17:23:41;;;;;;;20.57;11.88;;;;;;;0.07;100.00;99358.63;1773907;80;21053;-69
2021/12/03 17:53:27;;;;;;;21.45;13.60;;;;;;;-0.22;100.00;99377.77;1715811;83;21156;-74
2021/12/03 17:56:37;;;;;;;24.57;13.80;;;;;;;-0.23;100.00;99384.23;1712213;82;21141;-75
2021/12/03 17:58:26;;;;;;;25.50;13.20;;;;;;;-0.28;100.00;99370.02;1701256;82;21828;-73
2021/12/03 18:01:03;;;;;;;29.02;16.57;;;;;;;-0.29;100.00;99388.16;1724255;81;21066;-74
2021/12/03 18:03:39;;;;;;;26.02;14.83;;;;;;;-0.33;100.00;99381.28;1722678;82;21109;-73
2021/12/03 18:15:33;;;;;;;25.37;14.60;;;;;;;-0.31;100.00;99393.78;1805984;79;22354;-73
2021/12/03 18:45:20;;;;;;;31.73;17.05;;;;;;;-0.40;100.00;99449.00;1751900;80;21045;-73
2021/12/03 18:52:57;;;;;;;36.20;17.52;;;;;;;-0.38;100.00;99451.16;1738624;78;21080;-72
2021/12/03 18:55:37;;;;;;;30.62;16.37;;;;;;;-0.37;100.00;99452.86;1764715;78;21096;-71
2021/12/03 18:58:06;;;;;;;43.87;22.00;;;;;;;-0.39;100.00;99459.80;1780023;78;21037;-80
2021/12/03 19:00:37;;;;;;;40.92;22.17;;;;;;;-0.39;100.00;99464.97;1776244;78;21109;-82
2021/12/03 19:06:35;;;;;;;43.30;21.97;;;;;;;-0.36;100.00;99469.27;1720521;81;21769;-81
2021/12/03 19:08:18;;;;;;;31.45;16.23;;;;;;;-0.36;100.00;99477.88;1714371;81;21075;-81
2021/12/03 19:10:51;;;;;;;24.90;13.72;;;;;;;-0.33;100.00;99483.03;1719667;81;21065;-82
2021/12/03 19:13:18;;;;;;;30.30;17.30;;;;;;;-0.35;100.00;99483.47;1689944;83;22116;-82
2021/12/03 19:15:44;;;;;;;33.53;17.87;;;;;;;-0.34;100.00;99497.30;1774666;79;21097;-79
2021/12/03 19:18:10;;;;;;;30.23;16.25;;;;;;;-0.37;100.00;99512.36;1765871;80;21595;-82